Portada
METAR-TAF:

METAR-TAF

Aeroports :

Béchar, Algèria

latitud: 31-37N, longitud: 002-14W, altitud: 773 m

Observació

L'informe es va fer fa 1 hora i 2 minuts, a les 13:00 UTC
Vent 9 kt del Nord-Oest
Temperatura 21°C
Humitat 20%
Pressió 1007 hPa
Visibilitat 10 km o més
Núvols disperses a una alçada de 3300 ft
Núvols disperses a una alçada de 10000 ft

METAR: DAOR 221300Z 31009KT 9999 SCT033 SCT100 21/M03 Q1007

Hora: 15:02 (14:02 UTC)

Pronòstic

L'informe es va fer fa 3 hores i 2 minuts, a les 11:00 UTC
Pronòstic vàlid del 22 a les 12 UTC al 22 a les 21 UTC
Vent 9 kt del Nord/Nord-Oest
Visibilitat 10 km o més
Escasses núvols a una alçada de 3300 ft
Núvols disperses a una alçada de 10000 ft
Probabilitat 30% :
Temporalment
l' 22 a les 12 UTC al 22 a les 15 UTC
Escasses núvols a una alçada de 3000 ft, Cumulus congestus.

TAF: DAOR 221100Z 2212/2221 33009KT 9999 FEW033 SCT100 PROB30 TEMPO 2212/2215 FEW030TCU

Observacions i pronòstics meteorològics de més de 4000 aeroports (METAR i TAF).

Les estacions disponibles són els punts grocs i vermells al mapa.

Posi el ratolí al punt desitjat per veure el nom de l'estació.

Feu clic per veure les observacions i els pronòstics meteorològics.

Per canviar el mapa: feu clic els botons verds amb una creu de color negre per apropar; al botó verd amb un guió per allunyar la imatge; o en les fletxes verdes per a mapes adjacents.


METAR-TAF: